sensor_id;sensor_type;location;lat;lon;timestamp;temperature;humidity
38263;DHT22;24054;50.128;19.730;2022-12-17T00:00:28;21.50;48.50
38263;DHT22;24054;50.128;19.730;2022-12-17T00:03:12;21.50;48.40
38263;DHT22;24054;50.128;19.730;2022-12-17T00:05:57;21.40;48.40
38263;DHT22;24054;50.128;19.730;2022-12-17T00:08:41;21.40;48.40
38263;DHT22;24054;50.128;19.730;2022-12-17T00:11:27;21.40;48.40
38263;DHT22;24054;50.128;19.730;2022-12-17T00:14:12;21.40;48.40
38263;DHT22;24054;50.128;19.730;2022-12-17T00:16:56;21.40;48.40
38263;DHT22;24054;50.128;19.730;2022-12-17T00:19:40;21.40;48.50
38263;DHT22;24054;50.128;19.730;2022-12-17T00:22:24;21.30;48.40
38263;DHT22;24054;50.128;19.730;2022-12-17T00:25:09;21.30;48.40
38263;DHT22;24054;50.128;19.730;2022-12-17T00:27:54;21.30;48.40
38263;DHT22;24054;50.128;19.730;2022-12-17T00:30:38;21.30;48.30
38263;DHT22;24054;50.128;19.730;2022-12-17T00:33:23;21.30;48.30
38263;DHT22;24054;50.128;19.730;2022-12-17T00:36:07;21.30;48.40
38263;DHT22;24054;50.128;19.730;2022-12-17T00:38:51;21.30;48.40
38263;DHT22;24054;50.128;19.730;2022-12-17T00:41:36;21.30;48.30
38263;DHT22;24054;50.128;19.730;2022-12-17T00:44:22;21.30;48.30
38263;DHT22;24054;50.128;19.730;2022-12-17T00:47:10;21.20;48.20
38263;DHT22;24054;50.128;19.730;2022-12-17T00:49:55;21.30;48.30
38263;DHT22;24054;50.128;19.730;2022-12-17T00:52:39;21.20;48.20
38263;DHT22;24054;50.128;19.730;2022-12-17T00:55:23;21.20;48.20
38263;DHT22;24054;50.128;19.730;2022-12-17T00:58:08;21.20;48.20
38263;DHT22;24054;50.128;19.730;2022-12-17T01:00:57;21.20;48.20
38263;DHT22;24054;50.128;19.730;2022-12-17T01:03:41;21.20;48.20
38263;DHT22;24054;50.128;19.730;2022-12-17T01:06:27;21.10;48.10
38263;DHT22;24054;50.128;19.730;2022-12-17T01:09:14;21.10;48.20
38263;DHT22;24054;50.128;19.730;2022-12-17T01:11:58;21.10;48.20
38263;DHT22;24054;50.128;19.730;2022-12-17T01:14:43;21.10;48.20
38263;DHT22;24054;50.128;19.730;2022-12-17T01:17:28;21.10;48.20
38263;DHT22;24054;50.128;19.730;2022-12-17T01:20:13;21.10;48.20
38263;DHT22;24054;50.128;19.730;2022-12-17T01:22:57;21.10;48.20
38263;DHT22;24054;50.128;19.730;2022-12-17T01:25:42;21.00;48.10
38263;DHT22;24054;50.128;19.730;2022-12-17T01:28:26;21.00;48.10
38263;DHT22;24054;50.128;19.730;2022-12-17T01:31:11;21.00;48.10
38263;DHT22;24054;50.128;19.730;2022-12-17T01:33:53;21.00;48.10
38263;DHT22;24054;50.128;19.730;2022-12-17T01:36:38;21.00;48.10
38263;DHT22;24054;50.128;19.730;2022-12-17T01:39:22;21.00;48.10
38263;DHT22;24054;50.128;19.730;2022-12-17T01:42:10;21.00;48.10
38263;DHT22;24054;50.128;19.730;2022-12-17T01:44:55;21.00;48.10
38263;DHT22;24054;50.128;19.730;2022-12-17T01:47:44;21.00;48.10
38263;DHT22;24054;50.128;19.730;2022-12-17T01:50:41;21.00;48.10
38263;DHT22;24054;50.128;19.730;2022-12-17T01:53:29;20.90;48.00
38263;DHT22;24054;50.128;19.730;2022-12-17T01:56:15;20.90;48.00
38263;DHT22;24054;50.128;19.730;2022-12-17T01:59:00;20.90;48.00
38263;DHT22;24054;50.128;19.730;2022-12-17T02:01:46;20.90;48.00
38263;DHT22;24054;50.128;19.730;2022-12-17T02:04:30;20.90;48.00
38263;DHT22;24054;50.128;19.730;2022-12-17T02:07:27;20.90;48.00
38263;DHT22;24054;50.128;19.730;2022-12-17T02:10:22;20.90;48.00
38263;DHT22;24054;50.128;19.730;2022-12-17T02:13:12;20.90;48.00
38263;DHT22;24054;50.128;19.730;2022-12-17T02:16:01;20.80;47.90
38263;DHT22;24054;50.128;19.730;2022-12-17T02:18:50;20.90;48.00
38263;DHT22;24054;50.128;19.730;2022-12-17T02:21:35;20.80;47.90
38263;DHT22;24054;50.128;19.730;2022-12-17T02:24:30;20.80;47.90
38263;DHT22;24054;50.128;19.730;2022-12-17T02:27:20;20.80;47.90
38263;DHT22;24054;50.128;19.730;2022-12-17T02:30:11;20.80;47.90
38263;DHT22;24054;50.128;19.730;2022-12-17T02:32:55;20.80;48.50
38263;DHT22;24054;50.128;19.730;2022-12-17T02:35:42;20.80;47.90
38263;DHT22;24054;50.128;19.730;2022-12-17T02:38:30;20.80;48.00
38263;DHT22;24054;50.128;19.730;2022-12-17T02:41:14;20.80;48.00
38263;DHT22;24054;50.128;19.730;2022-12-17T02:44:00;20.70;47.90
38263;DHT22;24054;50.128;19.730;2022-12-17T02:46:46;20.70;47.90
38263;DHT22;24054;50.128;19.730;2022-12-17T02:49:31;20.70;47.90
38263;DHT22;24054;50.128;19.730;2022-12-17T02:52:17;20.70;47.90
38263;DHT22;24054;50.128;19.730;2022-12-17T02:55:02;20.70;47.90
38263;DHT22;24054;50.128;19.730;2022-12-17T02:57:47;20.70;47.90
38263;DHT22;24054;50.128;19.730;2022-12-17T03:00:38;20.70;48.00
38263;DHT22;24054;50.128;19.730;2022-12-17T03:03:23;20.70;47.90
38263;DHT22;24054;50.128;19.730;2022-12-17T03:06:07;20.70;47.90
38263;DHT22;24054;50.128;19.730;2022-12-17T03:08:51;20.70;47.90
38263;DHT22;24054;50.128;19.730;2022-12-17T03:11:36;20.70;47.90
38263;DHT22;24054;50.128;19.730;2022-12-17T03:14:20;20.70;47.80
38263;DHT22;24054;50.128;19.730;2022-12-17T03:17:06;20.60;47.80
38263;DHT22;24054;50.128;19.730;2022-12-17T03:19:50;20.60;47.70
38263;DHT22;24054;50.128;19.730;2022-12-17T03:22:35;20.70;47.80
38263;DHT22;24054;50.128;19.730;2022-12-17T03:25:19;20.60;47.70
38263;DHT22;24054;50.128;19.730;2022-12-17T03:28:04;20.60;47.70
38263;DHT22;24054;50.128;19.730;2022-12-17T03:30:48;20.60;47.70
38263;DHT22;24054;50.128;19.730;2022-12-17T03:33:39;20.60;47.70
38263;DHT22;24054;50.128;19.730;2022-12-17T03:36:24;20.60;47.70
38263;DHT22;24054;50.128;19.730;2022-12-17T03:39:08;20.60;47.70
38263;DHT22;24054;50.128;19.730;2022-12-17T03:41:52;20.60;47.70
38263;DHT22;24054;50.128;19.730;2022-12-17T03:44:36;20.50;47.60
38263;DHT22;24054;50.128;19.730;2022-12-17T03:47:21;20.50;47.60
38263;DHT22;24054;50.128;19.730;2022-12-17T03:50:07;20.50;47.60
38263;DHT22;24054;50.128;19.730;2022-12-17T03:52:51;20.50;47.60
38263;DHT22;24054;50.128;19.730;2022-12-17T03:55:36;20.50;47.60
38263;DHT22;24054;50.128;19.730;2022-12-17T03:58:20;20.50;47.60
38263;DHT22;24054;50.128;19.730;2022-12-17T04:01:05;20.50;47.60
38263;DHT22;24054;50.128;19.730;2022-12-17T04:03:49;20.50;47.60
38263;DHT22;24054;50.128;19.730;2022-12-17T04:06:35;20.50;47.60
38263;DHT22;24054;50.128;19.730;2022-12-17T04:09:19;20.50;47.60
38263;DHT22;24054;50.128;19.730;2022-12-17T04:12:04;20.50;48.20
38263;DHT22;24054;50.128;19.730;2022-12-17T04:14:48;20.50;47.60
38263;DHT22;24054;50.128;19.730;2022-12-17T04:17:32;20.40;47.60
38263;DHT22;24054;50.128;19.730;2022-12-17T04:20:16;20.50;47.60
38263;DHT22;24054;50.128;19.730;2022-12-17T04:23:02;20.40;47.60
38263;DHT22;24054;50.128;19.730;2022-12-17T04:25:46;20.40;47.50
38263;DHT22;24054;50.128;19.730;2022-12-17T04:28:31;20.40;47.50
38263;DHT22;24054;50.128;19.730;2022-12-17T04:31:15;20.40;47.60
38263;DHT22;24054;50.128;19.730;2022-12-17T04:33:59;20.40;47.50
38263;DHT22;24054;50.128;19.730;2022-12-17T04:36:44;20.40;47.50
38263;DHT22;24054;50.128;19.730;2022-12-17T04:39:29;20.40;47.50
38263;DHT22;24054;50.128;19.730;2022-12-17T04:42:14;20.40;47.50
38263;DHT22;24054;50.128;19.730;2022-12-17T04:44:59;20.40;47.50
38263;DHT22;24054;50.128;19.730;2022-12-17T04:48:00;20.30;47.40
38263;DHT22;24054;50.128;19.730;2022-12-17T04:50:44;20.30;47.50
38263;DHT22;24054;50.128;19.730;2022-12-17T04:53:29;20.30;47.50
38263;DHT22;24054;50.128;19.730;2022-12-17T04:56:15;20.30;47.40
38263;DHT22;24054;50.128;19.730;2022-12-17T04:58:59;20.30;47.50
38263;DHT22;24054;50.128;19.730;2022-12-17T05:01:43;20.30;47.40
38263;DHT22;24054;50.128;19.730;2022-12-17T05:04:28;20.30;47.40
38263;DHT22;24054;50.128;19.730;2022-12-17T05:07:12;20.30;47.40
38263;DHT22;24054;50.128;19.730;2022-12-17T05:09:56;20.30;47.40
38263;DHT22;24054;50.128;19.730;2022-12-17T05:12:42;20.30;47.50
38263;DHT22;24054;50.128;19.730;2022-12-17T05:15:27;20.30;47.40
38263;DHT22;24054;50.128;19.730;2022-12-17T05:18:12;20.30;47.50
38263;DHT22;24054;50.128;19.730;2022-12-17T05:21:04;20.30;47.40
38263;DHT22;24054;50.128;19.730;2022-12-17T05:23:49;20.30;47.40
38263;DHT22;24054;50.128;19.730;2022-12-17T05:26:33;20.20;47.40
38263;DHT22;24054;50.128;19.730;2022-12-17T05:29:19;20.30;47.50
38263;DHT22;24054;50.128;19.730;2022-12-17T05:32:03;20.20;47.50
38263;DHT22;24054;50.128;19.730;2022-12-17T05:34:48;20.20;47.60
38263;DHT22;24054;50.128;19.730;2022-12-17T05:37:32;20.20;47.60
38263;DHT22;24054;50.128;19.730;2022-12-17T05:40:17;20.20;47.50
38263;DHT22;24054;50.128;19.730;2022-12-17T05:43:02;20.20;47.40
38263;DHT22;24054;50.128;19.730;2022-12-17T05:45:48;20.30;47.50
38263;DHT22;24054;50.128;19.730;2022-12-17T05:48:33;20.20;47.40
38263;DHT22;24054;50.128;19.730;2022-12-17T05:51:18;20.20;47.50
38263;DHT22;24054;50.128;19.730;2022-12-17T05:54:02;20.20;47.50
38263;DHT22;24054;50.128;19.730;2022-12-17T05:56:46;20.20;47.40
38263;DHT22;24054;50.128;19.730;2022-12-17T05:59:31;20.20;47.60
38263;DHT22;24054;50.128;19.730;2022-12-17T06:02:17;20.20;47.70
38263;DHT22;24054;50.128;19.730;2022-12-17T06:05:01;20.20;47.70
38263;DHT22;24054;50.128;19.730;2022-12-17T06:07:48;20.20;47.80
38263;DHT22;24054;50.128;19.730;2022-12-17T06:10:33;20.10;47.80
38263;DHT22;24054;50.128;19.730;2022-12-17T06:13:17;20.10;48.00
38263;DHT22;24054;50.128;19.730;2022-12-17T06:16:02;20.10;48.20
38263;DHT22;24054;50.128;19.730;2022-12-17T06:18:48;20.20;48.50
38263;DHT22;24054;50.128;19.730;2022-12-17T06:21:33;20.20;48.90
38263;DHT22;24054;50.128;19.730;2022-12-17T06:24:18;20.20;49.00
38263;DHT22;24054;50.128;19.730;2022-12-17T06:27:02;20.20;49.30
38263;DHT22;24054;50.128;19.730;2022-12-17T06:29:47;20.30;49.60
38263;DHT22;24054;50.128;19.730;2022-12-17T06:32:32;20.30;49.80
38263;DHT22;24054;50.128;19.730;2022-12-17T06:35:18;20.30;50.00
38263;DHT22;24054;50.128;19.730;2022-12-17T06:38:04;20.40;50.10
38263;DHT22;24054;50.128;19.730;2022-12-17T06:40:49;20.40;50.10
38263;DHT22;24054;50.128;19.730;2022-12-17T06:43:34;20.50;50.20
38263;DHT22;24054;50.128;19.730;2022-12-17T06:46:18;20.50;50.20
38263;DHT22;24054;50.128;19.730;2022-12-17T06:49:02;20.60;50.20
38263;DHT22;24054;50.128;19.730;2022-12-17T06:51:48;20.70;50.30
38263;DHT22;24054;50.128;19.730;2022-12-17T06:54:32;20.70;50.20
38263;DHT22;24054;50.128;19.730;2022-12-17T06:57:17;20.80;50.20
38263;DHT22;24054;50.128;19.730;2022-12-17T07:00:02;20.80;50.10
38263;DHT22;24054;50.128;19.730;2022-12-17T07:02:48;20.80;50.10
38263;DHT22;24054;50.128;19.730;2022-12-17T07:05:33;20.90;50.10
38263;DHT22;24054;50.128;19.730;2022-12-17T07:08:19;21.00;50.10
38263;DHT22;24054;50.128;19.730;2022-12-17T07:11:03;21.00;50.00
38263;DHT22;24054;50.128;19.730;2022-12-17T07:13:47;21.00;49.90
38263;DHT22;24054;50.128;19.730;2022-12-17T07:16:32;21.10;49.90
38263;DHT22;24054;50.128;19.730;2022-12-17T07:19:16;21.10;49.80
38263;DHT22;24054;50.128;19.730;2022-12-17T07:22:00;21.20;49.80
38263;DHT22;24054;50.128;19.730;2022-12-17T07:24:47;21.20;49.70
38263;DHT22;24054;50.128;19.730;2022-12-17T07:27:31;21.30;49.70
38263;DHT22;24054;50.128;19.730;2022-12-17T07:30:16;21.30;49.60
38263;DHT22;24054;50.128;19.730;2022-12-17T07:33:02;21.30;49.50
38263;DHT22;24054;50.128;19.730;2022-12-17T07:35:51;21.40;49.60
38263;DHT22;24054;50.128;19.730;2022-12-17T07:38:36;21.40;49.50
38263;DHT22;24054;50.128;19.730;2022-12-17T07:41:22;21.40;49.40
38263;DHT22;24054;50.128;19.730;2022-12-17T07:44:07;21.50;49.40
38263;DHT22;24054;50.128;19.730;2022-12-17T07:46:51;21.50;49.40
38263;DHT22;24054;50.128;19.730;2022-12-17T07:49:36;21.50;49.30
38263;DHT22;24054;50.128;19.730;2022-12-17T07:52:20;21.50;49.20
38263;DHT22;24054;50.128;19.730;2022-12-17T07:55:05;21.60;49.40
38263;DHT22;24054;50.128;19.730;2022-12-17T07:58:04;21.50;49.40
38263;DHT22;24054;50.128;19.730;2022-12-17T08:00:49;21.60;49.50
38263;DHT22;24054;50.128;19.730;2022-12-17T08:03:33;21.60;49.40
38263;DHT22;24054;50.128;19.730;2022-12-17T08:06:18;21.60;49.50
38263;DHT22;24054;50.128;19.730;2022-12-17T08:09:03;21.60;49.40
38263;DHT22;24054;50.128;19.730;2022-12-17T08:11:47;21.70;49.50
38263;DHT22;24054;50.128;19.730;2022-12-17T08:14:33;21.70;49.50
38263;DHT22;24054;50.128;19.730;2022-12-17T08:17:18;21.70;49.70
38263;DHT22;24054;50.128;19.730;2022-12-17T08:20:03;21.80;50.00
38263;DHT22;24054;50.128;19.730;2022-12-17T08:22:48;21.80;49.90
38263;DHT22;24054;50.128;19.730;2022-12-17T08:25:32;21.80;50.10
38263;DHT22;24054;50.128;19.730;2022-12-17T08:28:16;21.80;50.00
38263;DHT22;24054;50.128;19.730;2022-12-17T08:31:02;21.80;50.30
38263;DHT22;24054;50.128;19.730;2022-12-17T08:33:47;21.90;50.10
38263;DHT22;24054;50.128;19.730;2022-12-17T08:36:46;21.90;50.10
38263;DHT22;24054;50.128;19.730;2022-12-17T08:39:30;21.90;50.10
38263;DHT22;24054;50.128;19.730;2022-12-17T08:42:14;21.90;50.00
38263;DHT22;24054;50.128;19.730;2022-12-17T08:44:59;21.90;50.00
38263;DHT22;24054;50.128;19.730;2022-12-17T08:47:45;21.90;49.90
38263;DHT22;24054;50.128;19.730;2022-12-17T08:50:29;22.00;49.90
38263;DHT22;24054;50.128;19.730;2022-12-17T08:53:14;22.00;50.00
38263;DHT22;24054;50.128;19.730;2022-12-17T08:56:13;22.00;49.90
38263;DHT22;24054;50.128;19.730;2022-12-17T08:58:57;22.00;49.90
38263;DHT22;24054;50.128;19.730;2022-12-17T09:01:41;22.00;49.90
38263;DHT22;24054;50.128;19.730;2022-12-17T09:04:28;22.10;50.00
38263;DHT22;24054;50.128;19.730;2022-12-17T09:07:12;22.10;49.90
38263;DHT22;24054;50.128;19.730;2022-12-17T09:09:56;22.10;49.90
38263;DHT22;24054;50.128;19.730;2022-12-17T09:12:41;22.10;49.90
38263;DHT22;24054;50.128;19.730;2022-12-17T09:15:33;22.10;49.90
38263;DHT22;24054;50.128;19.730;2022-12-17T09:18:18;22.20;50.00
38263;DHT22;24054;50.128;19.730;2022-12-17T09:21:06;22.10;49.90
38263;DHT22;24054;50.128;19.730;2022-12-17T09:23:51;22.20;49.90
38263;DHT22;24054;50.128;19.730;2022-12-17T09:26:35;22.20;49.90
38263;DHT22;24054;50.128;19.730;2022-12-17T09:29:20;22.20;50.40
38263;DHT22;24054;50.128;19.730;2022-12-17T09:32:18;22.30;49.90
38263;DHT22;24054;50.128;19.730;2022-12-17T09:35:03;22.30;49.80
38263;DHT22;24054;50.128;19.730;2022-12-17T09:37:51;22.30;49.70
38263;DHT22;24054;50.128;19.730;2022-12-17T09:40:36;22.30;49.70
38263;DHT22;24054;50.128;19.730;2022-12-17T09:43:28;22.30;49.60
38263;DHT22;24054;50.128;19.730;2022-12-17T09:46:20;22.40;49.60
38263;DHT22;24054;50.128;19.730;2022-12-17T09:49:13;22.40;49.60
38263;DHT22;24054;50.128;19.730;2022-12-17T09:52:02;22.40;49.50
38263;DHT22;24054;50.128;19.730;2022-12-17T09:54:50;22.40;49.60
38263;DHT22;24054;50.128;19.730;2022-12-17T09:57:36;22.40;49.70
38263;DHT22;24054;50.128;19.730;2022-12-17T10:00:23;22.40;49.60
38263;DHT22;24054;50.128;19.730;2022-12-17T10:03:10;22.40;49.60
38263;DHT22;24054;50.128;19.730;2022-12-17T10:05:56;22.40;49.60
38263;DHT22;24054;50.128;19.730;2022-12-17T10:08:43;22.40;49.60
38263;DHT22;24054;50.128;19.730;2022-12-17T10:11:29;22.40;49.60
38263;DHT22;24054;50.128;19.730;2022-12-17T10:14:18;22.40;49.50
38263;DHT22;24054;50.128;19.730;2022-12-17T10:17:14;22.40;49.60
38263;DHT22;24054;50.128;19.730;2022-12-17T10:20:00;22.40;49.50
38263;DHT22;24054;50.128;19.730;2022-12-17T10:22:47;22.40;49.50
38263;DHT22;24054;50.128;19.730;2022-12-17T10:25:31;22.40;49.00
38263;DHT22;24054;50.128;19.730;2022-12-17T10:28:19;22.30;48.70
38263;DHT22;24054;50.128;19.730;2022-12-17T10:31:07;22.30;48.70
38263;DHT22;24054;50.128;19.730;2022-12-17T10:33:55;22.30;48.60
38263;DHT22;24054;50.128;19.730;2022-12-17T10:36:44;22.30;48.60
38263;DHT22;24054;50.128;19.730;2022-12-17T10:39:30;22.20;48.60
38263;DHT22;24054;50.128;19.730;2022-12-17T10:42:23;22.20;48.70
38263;DHT22;24054;50.128;19.730;2022-12-17T10:45:24;22.20;49.00
38263;DHT22;24054;50.128;19.730;2022-12-17T10:48:20;22.20;48.80
38263;DHT22;24054;50.128;19.730;2022-12-17T10:51:05;22.20;48.90
38263;DHT22;24054;50.128;19.730;2022-12-17T10:54:08;22.20;48.90
38263;DHT22;24054;50.128;19.730;2022-12-17T10:56:55;22.20;49.00
38263;DHT22;24054;50.128;19.730;2022-12-17T10:59:42;22.10;49.00
38263;DHT22;24054;50.128;19.730;2022-12-17T11:02:29;22.20;49.10
38263;DHT22;24054;50.128;19.730;2022-12-17T11:05:15;22.20;49.20
38263;DHT22;24054;50.128;19.730;2022-12-17T11:08:04;22.30;49.30
38263;DHT22;24054;50.128;19.730;2022-12-17T11:10:49;22.30;49.40
38263;DHT22;24054;50.128;19.730;2022-12-17T11:13:36;22.30;49.50
38263;DHT22;24054;50.128;19.730;2022-12-17T11:16:25;22.30;49.50
38263;DHT22;24054;50.128;19.730;2022-12-17T11:19:28;22.30;49.50
38263;DHT22;24054;50.128;19.730;2022-12-17T11:22:24;22.40;49.60
38263;DHT22;24054;50.128;19.730;2022-12-17T11:25:22;22.40;49.70
38263;DHT22;24054;50.128;19.730;2022-12-17T11:28:14;22.40;49.70
38263;DHT22;24054;50.128;19.730;2022-12-17T11:31:09;22.50;49.70
38263;DHT22;24054;50.128;19.730;2022-12-17T11:34:03;22.50;49.80
38263;DHT22;24054;50.128;19.730;2022-12-17T11:36:57;22.50;49.80
38263;DHT22;24054;50.128;19.730;2022-12-17T11:39:48;22.50;49.80
38263;DHT22;24054;50.128;19.730;2022-12-17T11:42:40;22.60;49.80
38263;DHT22;24054;50.128;19.730;2022-12-17T11:45:32;22.60;49.90
38263;DHT22;24054;50.128;19.730;2022-12-17T11:48:23;22.60;50.00
38263;DHT22;24054;50.128;19.730;2022-12-17T11:51:16;22.60;50.40
38263;DHT22;24054;50.128;19.730;2022-12-17T11:54:06;22.70;50.50
38263;DHT22;24054;50.128;19.730;2022-12-17T11:57:02;22.70;50.30
38263;DHT22;24054;50.128;19.730;2022-12-17T11:59:55;22.70;49.90
38263;DHT22;24054;50.128;19.730;2022-12-17T12:02:50;22.60;49.60
38263;DHT22;24054;50.128;19.730;2022-12-17T12:05:42;22.60;49.50
38263;DHT22;24054;50.128;19.730;2022-12-17T12:08:29;22.70;49.40
38263;DHT22;24054;50.128;19.730;2022-12-17T12:11:25;22.60;49.30
38263;DHT22;24054;50.128;19.730;2022-12-17T12:14:22;22.60;49.10
38263;DHT22;24054;50.128;19.730;2022-12-17T12:17:20;22.60;48.70
38263;DHT22;24054;50.128;19.730;2022-12-17T12:20:12;22.50;48.20
38263;DHT22;24054;50.128;19.730;2022-12-17T12:23:06;22.50;48.20
38263;DHT22;24054;50.128;19.730;2022-12-17T12:25:57;22.40;48.30
38263;DHT22;24054;50.128;19.730;2022-12-17T12:28:53;22.40;48.40
38263;DHT22;24054;50.128;19.730;2022-12-17T12:31:43;22.40;48.50
38263;DHT22;24054;50.128;19.730;2022-12-17T12:34:30;22.40;48.50
38263;DHT22;24054;50.128;19.730;2022-12-17T12:37:17;22.40;48.70
38263;DHT22;24054;50.128;19.730;2022-12-17T12:40:10;22.30;48.70
38263;DHT22;24054;50.128;19.730;2022-12-17T12:43:01;22.30;48.60
38263;DHT22;24054;50.128;19.730;2022-12-17T12:45:54;22.30;48.60
38263;DHT22;24054;50.128;19.730;2022-12-17T12:48:46;22.20;48.60
38263;DHT22;24054;50.128;19.730;2022-12-17T12:51:34;22.20;48.60
38263;DHT22;24054;50.128;19.730;2022-12-17T12:54:27;22.20;48.90
38263;DHT22;24054;50.128;19.730;2022-12-17T12:57:30;22.20;49.20
38263;DHT22;24054;50.128;19.730;2022-12-17T13:00:30;22.10;49.40
38263;DHT22;24054;50.128;19.730;2022-12-17T13:03:26;22.10;49.40
38263;DHT22;24054;50.128;19.730;2022-12-17T13:06:25;22.10;49.50
38263;DHT22;24054;50.128;19.730;2022-12-17T13:09:04;22.10;49.50
38263;DHT22;24054;50.128;19.730;2022-12-17T13:11:36;22.10;49.50
38263;DHT22;24054;50.128;19.730;2022-12-17T13:14:10;22.10;49.60
38263;DHT22;24054;50.128;19.730;2022-12-17T13:16:49;22.20;49.70
38263;DHT22;24054;50.128;19.730;2022-12-17T13:19:30;22.10;49.60
38263;DHT22;24054;50.128;19.730;2022-12-17T13:22:09;22.20;49.60
38263;DHT22;24054;50.128;19.730;2022-12-17T13:24:36;22.20;49.60
38263;DHT22;24054;50.128;19.730;2022-12-17T13:27:04;22.20;49.60
38263;DHT22;24054;50.128;19.730;2022-12-17T13:29:32;22.20;49.50
38263;DHT22;24054;50.128;19.730;2022-12-17T13:32:01;22.20;49.50
38263;DHT22;24054;50.128;19.730;2022-12-17T13:34:45;22.30;49.50
38263;DHT22;24054;50.128;19.730;2022-12-17T13:37:26;22.30;49.50
38263;DHT22;24054;50.128;19.730;2022-12-17T13:40:03;22.30;49.40
38263;DHT22;24054;50.128;19.730;2022-12-17T13:42:35;22.30;49.40
38263;DHT22;24054;50.128;19.730;2022-12-17T13:45:03;22.30;49.40
38263;DHT22;24054;50.128;19.730;2022-12-17T13:47:34;22.40;49.40
38263;DHT22;24054;50.128;19.730;2022-12-17T13:50:18;22.40;49.40
38263;DHT22;24054;50.128;19.730;2022-12-17T13:52:48;22.40;49.30
38263;DHT22;24054;50.128;19.730;2022-12-17T13:55:20;22.40;49.30
38263;DHT22;24054;50.128;19.730;2022-12-17T13:57:48;22.50;49.30
38263;DHT22;24054;50.128;19.730;2022-12-17T14:00:21;22.50;49.30
38263;DHT22;24054;50.128;19.730;2022-12-17T14:02:50;22.50;49.20
38263;DHT22;24054;50.128;19.730;2022-12-17T14:05:30;22.50;49.20
38263;DHT22;24054;50.128;19.730;2022-12-17T14:07:59;22.50;49.20
38263;DHT22;24054;50.128;19.730;2022-12-17T14:10:28;22.50;49.20
38263;DHT22;24054;50.128;19.730;2022-12-17T14:13:03;22.50;49.20
38263;DHT22;24054;50.128;19.730;2022-12-17T14:15:31;22.50;49.20
38263;DHT22;24054;50.128;19.730;2022-12-17T14:17:58;22.60;49.30
38263;DHT22;24054;50.128;19.730;2022-12-17T14:20:29;22.60;49.30
38263;DHT22;24054;50.128;19.730;2022-12-17T14:23:00;22.60;49.30
38263;DHT22;24054;50.128;19.730;2022-12-17T14:25:34;22.60;49.30
38263;DHT22;24054;50.128;19.730;2022-12-17T14:28:04;22.60;49.30
38263;DHT22;24054;50.128;19.730;2022-12-17T14:30:35;22.50;49.20
38263;DHT22;24054;50.128;19.730;2022-12-17T14:33:03;22.50;49.10
38263;DHT22;24054;50.128;19.730;2022-12-17T14:35:34;22.60;49.10
38263;DHT22;24054;50.128;19.730;2022-12-17T14:38:02;22.50;49.00
38263;DHT22;24054;50.128;19.730;2022-12-17T14:40:30;22.50;48.90
38263;DHT22;24054;50.128;19.730;2022-12-17T14:42:59;22.50;48.90
38263;DHT22;24054;50.128;19.730;2022-12-17T14:45:26;22.50;48.80
38263;DHT22;24054;50.128;19.730;2022-12-17T14:47:55;22.50;48.80
38263;DHT22;24054;50.128;19.730;2022-12-17T14:50:24;22.40;48.70
38263;DHT22;24054;50.128;19.730;2022-12-17T14:52:53;22.40;48.80
38263;DHT22;24054;50.128;19.730;2022-12-17T14:55:26;22.40;48.70
38263;DHT22;24054;50.128;19.730;2022-12-17T14:58:18;22.40;48.60
38263;DHT22;24054;50.128;19.730;2022-12-17T15:00:48;22.40;48.70
38263;DHT22;24054;50.128;19.730;2022-12-17T15:03:21;22.30;48.50
38263;DHT22;24054;50.128;19.730;2022-12-17T15:05:52;22.30;48.50
38263;DHT22;24054;50.128;19.730;2022-12-17T15:08:21;22.30;48.50
38263;DHT22;24054;50.128;19.730;2022-12-17T15:10:49;22.20;48.40
38263;DHT22;24054;50.128;19.730;2022-12-17T15:13:16;22.20;48.50
38263;DHT22;24054;50.128;19.730;2022-12-17T15:15:43;22.20;48.50
38263;DHT22;24054;50.128;19.730;2022-12-17T15:18:10;22.20;48.60
38263;DHT22;24054;50.128;19.730;2022-12-17T15:20:38;22.20;48.60
38263;DHT22;24054;50.128;19.730;2022-12-17T15:23:11;22.20;48.50
38263;DHT22;24054;50.128;19.730;2022-12-17T15:25:41;22.10;48.50
38263;DHT22;24054;50.128;19.730;2022-12-17T15:28:09;22.10;48.60
38263;DHT22;24054;50.128;19.730;2022-12-17T15:30:36;22.10;48.60
38263;DHT22;24054;50.128;19.730;2022-12-17T15:33:05;22.10;48.60
38263;DHT22;24054;50.128;19.730;2022-12-17T15:35:32;22.00;48.60
38263;DHT22;24054;50.128;19.730;2022-12-17T15:37:59;22.00;48.60
38263;DHT22;24054;50.128;19.730;2022-12-17T15:40:26;22.00;49.10
38263;DHT22;24054;50.128;19.730;2022-12-17T15:42:56;22.00;49.00
38263;DHT22;24054;50.128;19.730;2022-12-17T15:45:39;22.00;49.00
38263;DHT22;24054;50.128;19.730;2022-12-17T15:48:06;22.00;49.10
38263;DHT22;24054;50.128;19.730;2022-12-17T15:50:33;22.00;49.10
38263;DHT22;24054;50.128;19.730;2022-12-17T15:53:00;22.10;49.20
38263;DHT22;24054;50.128;19.730;2022-12-17T15:55:31;22.10;49.40
38263;DHT22;24054;50.128;19.730;2022-12-17T15:58:00;22.10;49.20
38263;DHT22;24054;50.128;19.730;2022-12-17T16:00:29;22.10;49.20
38263;DHT22;24054;50.128;19.730;2022-12-17T16:02:56;22.10;49.20
38263;DHT22;24054;50.128;19.730;2022-12-17T16:05:23;22.10;49.30
38263;DHT22;24054;50.128;19.730;2022-12-17T16:07:51;22.20;49.40
38263;DHT22;24054;50.128;19.730;2022-12-17T16:10:18;22.20;49.40
38263;DHT22;24054;50.128;19.730;2022-12-17T16:12:45;22.20;50.10
38263;DHT22;24054;50.128;19.730;2022-12-17T16:15:16;22.30;49.50
38263;DHT22;24054;50.128;19.730;2022-12-17T16:17:43;22.30;49.50
38263;DHT22;24054;50.128;19.730;2022-12-17T16:20:11;22.30;49.50
38263;DHT22;24054;50.128;19.730;2022-12-17T16:22:38;22.30;49.40
38263;DHT22;24054;50.128;19.730;2022-12-17T16:25:06;22.40;49.40
38263;DHT22;24054;50.128;19.730;2022-12-17T16:27:35;22.30;49.40
38263;DHT22;24054;50.128;19.730;2022-12-17T16:30:03;22.40;49.40
38263;DHT22;24054;50.128;19.730;2022-12-17T16:32:32;22.40;49.40
38263;DHT22;24054;50.128;19.730;2022-12-17T16:34:59;22.40;49.30
38263;DHT22;24054;50.128;19.730;2022-12-17T16:37:26;22.40;49.30
38263;DHT22;24054;50.128;19.730;2022-12-17T16:39:53;22.40;49.30
38263;DHT22;24054;50.128;19.730;2022-12-17T16:42:21;22.40;49.30
38263;DHT22;24054;50.128;19.730;2022-12-17T16:44:48;22.50;49.30
38263;DHT22;24054;50.128;19.730;2022-12-17T16:47:15;22.50;49.40
38263;DHT22;24054;50.128;19.730;2022-12-17T16:49:43;22.50;49.50
38263;DHT22;24054;50.128;19.730;2022-12-17T16:52:10;22.50;49.60